sensor_id;sensor_type;location;lat;lon;timestamp;temperature;humidity
6118;DHT22;3089;48.202;11.510;2023-04-25T00:02:15;9.60;99.90
6118;DHT22;3089;48.202;11.510;2023-04-25T00:04:44;9.50;99.90
6118;DHT22;3089;48.202;11.510;2023-04-25T00:07:13;9.60;99.90
6118;DHT22;3089;48.202;11.510;2023-04-25T00:09:41;9.50;99.90
6118;DHT22;3089;48.202;11.510;2023-04-25T00:12:10;9.50;99.90
6118;DHT22;3089;48.202;11.510;2023-04-25T00:14:38;9.50;99.90
6118;DHT22;3089;48.202;11.510;2023-04-25T00:17:06;9.50;99.90
6118;DHT22;3089;48.202;11.510;2023-04-25T00:19:34;9.50;99.90
6118;DHT22;3089;48.202;11.510;2023-04-25T00:22:01;9.50;99.90
6118;DHT22;3089;48.202;11.510;2023-04-25T00:24:29;9.50;99.90
6118;DHT22;3089;48.202;11.510;2023-04-25T00:26:57;9.50;99.90
6118;DHT22;3089;48.202;11.510;2023-04-25T00:29:26;9.50;99.90
6118;DHT22;3089;48.202;11.510;2023-04-25T00:31:54;9.50;99.90
6118;DHT22;3089;48.202;11.510;2023-04-25T00:34:22;9.50;99.90
6118;DHT22;3089;48.202;11.510;2023-04-25T00:36:50;9.60;99.90
6118;DHT22;3089;48.202;11.510;2023-04-25T00:39:18;9.60;99.90
6118;DHT22;3089;48.202;11.510;2023-04-25T00:41:46;9.40;99.90
6118;DHT22;3089;48.202;11.510;2023-04-25T00:44:15;9.40;99.90
6118;DHT22;3089;48.202;11.510;2023-04-25T00:46:47;9.30;99.90
6118;DHT22;3089;48.202;11.510;2023-04-25T00:49:15;9.30;99.90
6118;DHT22;3089;48.202;11.510;2023-04-25T00:51:43;9.20;99.90
6118;DHT22;3089;48.202;11.510;2023-04-25T00:54:12;9.30;99.90
6118;DHT22;3089;48.202;11.510;2023-04-25T00:56:41;9.20;99.90
6118;DHT22;3089;48.202;11.510;2023-04-25T00:59:09;9.20;99.90
6118;DHT22;3089;48.202;11.510;2023-04-25T01:01:38;9.10;99.90
6118;DHT22;3089;48.202;11.510;2023-04-25T01:04:08;9.10;99.90
6118;DHT22;3089;48.202;11.510;2023-04-25T01:06:36;9.20;99.90
6118;DHT22;3089;48.202;11.510;2023-04-25T01:09:04;9.10;99.90
6118;DHT22;3089;48.202;11.510;2023-04-25T01:11:32;9.20;99.90
6118;DHT22;3089;48.202;11.510;2023-04-25T01:14:00;9.10;99.90
6118;DHT22;3089;48.202;11.510;2023-04-25T01:16:28;9.10;99.90
6118;DHT22;3089;48.202;11.510;2023-04-25T01:18:56;9.10;99.90
6118;DHT22;3089;48.202;11.510;2023-04-25T01:21:29;9.00;99.90
6118;DHT22;3089;48.202;11.510;2023-04-25T01:23:57;8.90;99.90
6118;DHT22;3089;48.202;11.510;2023-04-25T01:26:25;8.90;99.90
6118;DHT22;3089;48.202;11.510;2023-04-25T01:28:53;8.80;99.90
6118;DHT22;3089;48.202;11.510;2023-04-25T01:31:22;8.90;99.90
6118;DHT22;3089;48.202;11.510;2023-04-25T01:33:52;9.00;99.90
6118;DHT22;3089;48.202;11.510;2023-04-25T01:36:20;8.90;99.90
6118;DHT22;3089;48.202;11.510;2023-04-25T01:38:50;8.90;99.90
6118;DHT22;3089;48.202;11.510;2023-04-25T01:41:19;8.80;99.90
6118;DHT22;3089;48.202;11.510;2023-04-25T01:43:51;8.80;99.90
6118;DHT22;3089;48.202;11.510;2023-04-25T01:46:20;8.80;99.90
6118;DHT22;3089;48.202;11.510;2023-04-25T01:48:48;8.70;99.90
6118;DHT22;3089;48.202;11.510;2023-04-25T01:51:15;8.70;99.90
6118;DHT22;3089;48.202;11.510;2023-04-25T01:53:43;8.70;99.90
6118;DHT22;3089;48.202;11.510;2023-04-25T01:56:13;8.70;99.90
6118;DHT22;3089;48.202;11.510;2023-04-25T01:58:41;8.70;99.90
6118;DHT22;3089;48.202;11.510;2023-04-25T02:01:09;8.70;99.90
6118;DHT22;3089;48.202;11.510;2023-04-25T02:03:37;8.70;99.90
6118;DHT22;3089;48.202;11.510;2023-04-25T02:06:05;8.60;99.90
6118;DHT22;3089;48.202;11.510;2023-04-25T02:08:33;8.60;99.90
6118;DHT22;3089;48.202;11.510;2023-04-25T02:11:01;8.60;99.90
6118;DHT22;3089;48.202;11.510;2023-04-25T02:13:31;8.60;99.90
6118;DHT22;3089;48.202;11.510;2023-04-25T02:15:59;8.50;99.90
6118;DHT22;3089;48.202;11.510;2023-04-25T02:18:26;8.50;99.90
6118;DHT22;3089;48.202;11.510;2023-04-25T02:20:55;8.50;99.90
6118;DHT22;3089;48.202;11.510;2023-04-25T02:23:23;8.60;99.90
6118;DHT22;3089;48.202;11.510;2023-04-25T02:25:52;8.60;99.90
6118;DHT22;3089;48.202;11.510;2023-04-25T02:28:21;8.60;99.90
6118;DHT22;3089;48.202;11.510;2023-04-25T02:30:54;8.60;99.90
6118;DHT22;3089;48.202;11.510;2023-04-25T02:33:22;8.60;99.90
6118;DHT22;3089;48.202;11.510;2023-04-25T02:35:50;8.60;99.90
6118;DHT22;3089;48.202;11.510;2023-04-25T02:38:18;8.50;99.90
6118;DHT22;3089;48.202;11.510;2023-04-25T02:40:45;8.50;99.90
6118;DHT22;3089;48.202;11.510;2023-04-25T02:43:13;8.50;99.90
6118;DHT22;3089;48.202;11.510;2023-04-25T02:45:42;8.50;99.90
6118;DHT22;3089;48.202;11.510;2023-04-25T02:48:11;8.50;99.90
6118;DHT22;3089;48.202;11.510;2023-04-25T02:50:39;8.40;99.90
6118;DHT22;3089;48.202;11.510;2023-04-25T02:53:07;8.50;99.90
6118;DHT22;3089;48.202;11.510;2023-04-25T02:55:35;8.50;99.90
6118;DHT22;3089;48.202;11.510;2023-04-25T02:58:03;8.50;99.90
6118;DHT22;3089;48.202;11.510;2023-04-25T03:00:31;8.50;99.90
6118;DHT22;3089;48.202;11.510;2023-04-25T03:02:59;8.50;99.90
6118;DHT22;3089;48.202;11.510;2023-04-25T03:05:28;8.40;99.90
6118;DHT22;3089;48.202;11.510;2023-04-25T03:07:56;8.40;99.90
6118;DHT22;3089;48.202;11.510;2023-04-25T03:10:24;8.40;99.90
6118;DHT22;3089;48.202;11.510;2023-04-25T03:12:52;8.50;99.90
6118;DHT22;3089;48.202;11.510;2023-04-25T03:15:20;8.50;99.90
6118;DHT22;3089;48.202;11.510;2023-04-25T03:17:47;8.50;99.90
6118;DHT22;3089;48.202;11.510;2023-04-25T03:20:15;8.50;99.90
6118;DHT22;3089;48.202;11.510;2023-04-25T03:22:45;8.50;99.90
6118;DHT22;3089;48.202;11.510;2023-04-25T03:25:13;8.50;99.90
6118;DHT22;3089;48.202;11.510;2023-04-25T03:27:40;8.50;99.90
6118;DHT22;3089;48.202;11.510;2023-04-25T03:30:09;8.40;99.90
6118;DHT22;3089;48.202;11.510;2023-04-25T03:32:37;8.50;99.90
6118;DHT22;3089;48.202;11.510;2023-04-25T03:35:05;8.40;99.90
6118;DHT22;3089;48.202;11.510;2023-04-25T03:37:33;8.20;99.90
6118;DHT22;3089;48.202;11.510;2023-04-25T03:40:04;8.30;99.90
6118;DHT22;3089;48.202;11.510;2023-04-25T03:42:32;8.30;99.90
6118;DHT22;3089;48.202;11.510;2023-04-25T03:45:00;8.30;99.90
6118;DHT22;3089;48.202;11.510;2023-04-25T03:47:28;8.30;99.90
6118;DHT22;3089;48.202;11.510;2023-04-25T03:49:56;8.20;99.90
6118;DHT22;3089;48.202;11.510;2023-04-25T03:52:24;8.20;99.90
6118;DHT22;3089;48.202;11.510;2023-04-25T03:54:52;8.30;99.90
6118;DHT22;3089;48.202;11.510;2023-04-25T03:57:21;8.20;99.90
6118;DHT22;3089;48.202;11.510;2023-04-25T03:59:49;8.30;99.90
6118;DHT22;3089;48.202;11.510;2023-04-25T04:02:17;8.20;99.90
6118;DHT22;3089;48.202;11.510;2023-04-25T04:04:45;8.20;99.90
6118;DHT22;3089;48.202;11.510;2023-04-25T04:07:14;8.20;99.90
6118;DHT22;3089;48.202;11.510;2023-04-25T04:09:42;8.20;99.90
6118;DHT22;3089;48.202;11.510;2023-04-25T04:12:12;8.30;99.90
6118;DHT22;3089;48.202;11.510;2023-04-25T04:14:41;8.30;99.90
6118;DHT22;3089;48.202;11.510;2023-04-25T04:17:09;8.20;99.90
6118;DHT22;3089;48.202;11.510;2023-04-25T04:19:37;8.20;99.90
6118;DHT22;3089;48.202;11.510;2023-04-25T04:22:05;8.20;99.90
6118;DHT22;3089;48.202;11.510;2023-04-25T04:24:33;8.30;99.90
6118;DHT22;3089;48.202;11.510;2023-04-25T04:27:00;8.30;99.90
6118;DHT22;3089;48.202;11.510;2023-04-25T04:29:29;8.30;99.90
6118;DHT22;3089;48.202;11.510;2023-04-25T04:31:58;8.30;99.90
6118;DHT22;3089;48.202;11.510;2023-04-25T04:34:27;8.20;99.90
6118;DHT22;3089;48.202;11.510;2023-04-25T04:36:55;8.20;99.90
6118;DHT22;3089;48.202;11.510;2023-04-25T04:39:23;8.20;99.90
6118;DHT22;3089;48.202;11.510;2023-04-25T04:41:51;8.20;99.90
6118;DHT22;3089;48.202;11.510;2023-04-25T04:44:19;8.20;99.90
6118;DHT22;3089;48.202;11.510;2023-04-25T04:46:47;8.20;99.90
6118;DHT22;3089;48.202;11.510;2023-04-25T04:49:16;8.10;99.90
6118;DHT22;3089;48.202;11.510;2023-04-25T04:51:44;8.20;99.90
6118;DHT22;3089;48.202;11.510;2023-04-25T04:54:12;8.20;99.90
6118;DHT22;3089;48.202;11.510;2023-04-25T04:56:40;8.20;99.90
6118;DHT22;3089;48.202;11.510;2023-04-25T04:59:08;8.20;99.90
6118;DHT22;3089;48.202;11.510;2023-04-25T05:01:36;8.20;99.90
6118;DHT22;3089;48.202;11.510;2023-04-25T05:04:05;8.20;99.90
6118;DHT22;3089;48.202;11.510;2023-04-25T05:06:35;8.20;99.90
6118;DHT22;3089;48.202;11.510;2023-04-25T05:09:03;8.10;99.90
6118;DHT22;3089;48.202;11.510;2023-04-25T05:11:31;8.20;99.90
6118;DHT22;3089;48.202;11.510;2023-04-25T05:13:59;8.10;99.90
6118;DHT22;3089;48.202;11.510;2023-04-25T05:16:27;8.20;99.90
6118;DHT22;3089;48.202;11.510;2023-04-25T05:18:54;8.20;99.90
6118;DHT22;3089;48.202;11.510;2023-04-25T05:21:22;8.20;99.90
6118;DHT22;3089;48.202;11.510;2023-04-25T05:23:51;8.20;99.90
6118;DHT22;3089;48.202;11.510;2023-04-25T05:26:19;7.90;99.90
6118;DHT22;3089;48.202;11.510;2023-04-25T05:28:47;7.90;99.90
6118;DHT22;3089;48.202;11.510;2023-04-25T05:31:17;7.90;99.90
6118;DHT22;3089;48.202;11.510;2023-04-25T05:33:45;8.10;99.90
6118;DHT22;3089;48.202;11.510;2023-04-25T05:36:13;8.10;99.90
6118;DHT22;3089;48.202;11.510;2023-04-25T05:38:40;8.10;99.90
6118;DHT22;3089;48.202;11.510;2023-04-25T05:41:10;8.00;99.90
6118;DHT22;3089;48.202;11.510;2023-04-25T05:43:38;8.10;99.90
6118;DHT22;3089;48.202;11.510;2023-04-25T05:46:11;8.20;99.90
6118;DHT22;3089;48.202;11.510;2023-04-25T05:48:39;8.20;99.90
6118;DHT22;3089;48.202;11.510;2023-04-25T05:51:07;8.10;99.90
6118;DHT22;3089;48.202;11.510;2023-04-25T05:53:35;8.20;99.90
6118;DHT22;3089;48.202;11.510;2023-04-25T05:56:03;8.20;99.90
6118;DHT22;3089;48.202;11.510;2023-04-25T05:58:32;8.20;99.90
6118;DHT22;3089;48.202;11.510;2023-04-25T06:01:02;8.20;99.90
6118;DHT22;3089;48.202;11.510;2023-04-25T06:03:30;8.30;99.90
6118;DHT22;3089;48.202;11.510;2023-04-25T06:05:58;8.30;99.90
6118;DHT22;3089;48.202;11.510;2023-04-25T06:08:26;8.30;99.90
6118;DHT22;3089;48.202;11.510;2023-04-25T06:10:54;8.30;99.90
6118;DHT22;3089;48.202;11.510;2023-04-25T06:13:22;8.30;99.90
6118;DHT22;3089;48.202;11.510;2023-04-25T06:15:51;8.30;99.90
6118;DHT22;3089;48.202;11.510;2023-04-25T06:18:18;8.20;99.90
6118;DHT22;3089;48.202;11.510;2023-04-25T06:20:46;8.20;99.90
6118;DHT22;3089;48.202;11.510;2023-04-25T06:23:14;8.20;99.90
6118;DHT22;3089;48.202;11.510;2023-04-25T06:25:42;8.30;99.90
6118;DHT22;3089;48.202;11.510;2023-04-25T06:28:09;8.30;99.90
6118;DHT22;3089;48.202;11.510;2023-04-25T06:30:37;8.30;99.90
6118;DHT22;3089;48.202;11.510;2023-04-25T06:33:06;8.30;99.90
6118;DHT22;3089;48.202;11.510;2023-04-25T06:35:35;8.30;99.90
6118;DHT22;3089;48.202;11.510;2023-04-25T06:38:03;8.40;99.90
6118;DHT22;3089;48.202;11.510;2023-04-25T06:40:31;8.40;99.90
6118;DHT22;3089;48.202;11.510;2023-04-25T06:42:59;8.90;99.90
6118;DHT22;3089;48.202;11.510;2023-04-25T06:45:26;10.10;99.90
6118;DHT22;3089;48.202;11.510;2023-04-25T06:47:54;10.80;99.90
6118;DHT22;3089;48.202;11.510;2023-04-25T06:50:24;9.50;99.90
6118;DHT22;3089;48.202;11.510;2023-04-25T06:52:52;9.20;99.90
6118;DHT22;3089;48.202;11.510;2023-04-25T06:55:20;9.00;99.90
6118;DHT22;3089;48.202;11.510;2023-04-25T06:57:47;8.80;99.90
6118;DHT22;3089;48.202;11.510;2023-04-25T07:00:16;8.70;99.90
6118;DHT22;3089;48.202;11.510;2023-04-25T07:02:44;8.70;99.90
6118;DHT22;3089;48.202;11.510;2023-04-25T07:05:12;8.70;99.90
6118;DHT22;3089;48.202;11.510;2023-04-25T07:07:41;8.80;99.90
6118;DHT22;3089;48.202;11.510;2023-04-25T07:10:09;8.60;99.90
6118;DHT22;3089;48.202;11.510;2023-04-25T07:12:37;8.50;99.90
6118;DHT22;3089;48.202;11.510;2023-04-25T07:15:06;8.40;99.90
6118;DHT22;3089;48.202;11.510;2023-04-25T07:17:36;8.40;99.90
6118;DHT22;3089;48.202;11.510;2023-04-25T07:20:05;8.30;99.90
6118;DHT22;3089;48.202;11.510;2023-04-25T07:22:35;8.30;99.90
6118;DHT22;3089;48.202;11.510;2023-04-25T07:25:05;8.60;99.90
6118;DHT22;3089;48.202;11.510;2023-04-25T07:27:33;8.90;99.90
6118;DHT22;3089;48.202;11.510;2023-04-25T07:30:01;9.20;99.90
6118;DHT22;3089;48.202;11.510;2023-04-25T07:32:30;9.20;99.90
6118;DHT22;3089;48.202;11.510;2023-04-25T07:34:58;9.60;99.90
6118;DHT22;3089;48.202;11.510;2023-04-25T07:37:25;9.70;99.90
6118;DHT22;3089;48.202;11.510;2023-04-25T07:39:53;9.90;99.90
6118;DHT22;3089;48.202;11.510;2023-04-25T07:42:22;10.00;99.90
6118;DHT22;3089;48.202;11.510;2023-04-25T07:44:50;10.00;99.90
6118;DHT22;3089;48.202;11.510;2023-04-25T07:47:18;10.10;99.90
6118;DHT22;3089;48.202;11.510;2023-04-25T07:49:47;10.20;99.90
6118;DHT22;3089;48.202;11.510;2023-04-25T07:52:15;10.50;99.90
6118;DHT22;3089;48.202;11.510;2023-04-25T07:54:42;10.80;99.90
6118;DHT22;3089;48.202;11.510;2023-04-25T07:57:10;11.20;99.90
6118;DHT22;3089;48.202;11.510;2023-04-25T07:59:41;12.00;99.90
6118;DHT22;3089;48.202;11.510;2023-04-25T08:02:09;10.60;99.90
6118;DHT22;3089;48.202;11.510;2023-04-25T08:04:37;11.00;99.90
6118;DHT22;3089;48.202;11.510;2023-04-25T08:07:05;11.10;99.90
6118;DHT22;3089;48.202;11.510;2023-04-25T08:09:33;10.80;99.90
6118;DHT22;3089;48.202;11.510;2023-04-25T08:12:03;10.60;99.90
6118;DHT22;3089;48.202;11.510;2023-04-25T08:14:31;10.50;99.90
6118;DHT22;3089;48.202;11.510;2023-04-25T08:17:04;10.40;99.90
6118;DHT22;3089;48.202;11.510;2023-04-25T08:19:32;10.50;99.90
6118;DHT22;3089;48.202;11.510;2023-04-25T08:21:59;11.20;99.90
6118;DHT22;3089;48.202;11.510;2023-04-25T08:24:27;10.80;99.90
6118;DHT22;3089;48.202;11.510;2023-04-25T08:26:55;10.80;99.90
6118;DHT22;3089;48.202;11.510;2023-04-25T08:29:23;10.40;99.90
6118;DHT22;3089;48.202;11.510;2023-04-25T08:31:52;10.20;99.90
6118;DHT22;3089;48.202;11.510;2023-04-25T08:34:21;10.90;99.90
6118;DHT22;3089;48.202;11.510;2023-04-25T08:36:49;11.60;99.90
6118;DHT22;3089;48.202;11.510;2023-04-25T08:39:17;12.90;99.90
6118;DHT22;3089;48.202;11.510;2023-04-25T08:41:45;13.00;99.90
6118;DHT22;3089;48.202;11.510;2023-04-25T08:44:13;11.70;99.90
6118;DHT22;3089;48.202;11.510;2023-04-25T08:46:42;11.50;99.90
6118;DHT22;3089;48.202;11.510;2023-04-25T08:49:14;11.10;99.90
6118;DHT22;3089;48.202;11.510;2023-04-25T08:51:45;11.40;99.90
6118;DHT22;3089;48.202;11.510;2023-04-25T08:54:14;11.70;99.90
6118;DHT22;3089;48.202;11.510;2023-04-25T08:57:01;11.80;99.90
6118;DHT22;3089;48.202;11.510;2023-04-25T08:59:32;12.70;99.90
6118;DHT22;3089;48.202;11.510;2023-04-25T09:02:03;11.40;99.90
6118;DHT22;3089;48.202;11.510;2023-04-25T09:04:31;11.30;99.90
6118;DHT22;3089;48.202;11.510;2023-04-25T09:07:00;11.20;99.90
6118;DHT22;3089;48.202;11.510;2023-04-25T09:09:29;11.10;99.90
6118;DHT22;3089;48.202;11.510;2023-04-25T09:11:57;11.00;99.90
6118;DHT22;3089;48.202;11.510;2023-04-25T09:14:26;11.40;99.90
6118;DHT22;3089;48.202;11.510;2023-04-25T09:16:58;11.60;99.90
6118;DHT22;3089;48.202;11.510;2023-04-25T09:19:27;12.10;99.90
6118;DHT22;3089;48.202;11.510;2023-04-25T09:22:07;12.20;99.90
6118;DHT22;3089;48.202;11.510;2023-04-25T09:24:37;12.30;99.90
6118;DHT22;3089;48.202;11.510;2023-04-25T09:27:05;11.70;99.90
6118;DHT22;3089;48.202;11.510;2023-04-25T09:29:35;12.00;99.90
6118;DHT22;3089;48.202;11.510;2023-04-25T09:32:18;12.60;99.90
6118;DHT22;3089;48.202;11.510;2023-04-25T09:34:47;12.60;99.90
6118;DHT22;3089;48.202;11.510;2023-04-25T09:37:22;13.60;99.90
6118;DHT22;3089;48.202;11.510;2023-04-25T09:39:52;12.40;99.90
6118;DHT22;3089;48.202;11.510;2023-04-25T09:42:22;11.90;99.90
6118;DHT22;3089;48.202;11.510;2023-04-25T09:44:53;12.60;99.90
6118;DHT22;3089;48.202;11.510;2023-04-25T09:47:23;14.00;99.90
6118;DHT22;3089;48.202;11.510;2023-04-25T09:49:52;14.10;99.90
6118;DHT22;3089;48.202;11.510;2023-04-25T09:52:23;14.50;99.90
6118;DHT22;3089;48.202;11.510;2023-04-25T09:54:52;13.70;99.90
6118;DHT22;3089;48.202;11.510;2023-04-25T09:57:21;13.30;99.90
6118;DHT22;3089;48.202;11.510;2023-04-25T09:59:51;12.80;99.90
6118;DHT22;3089;48.202;11.510;2023-04-25T10:02:21;12.50;99.90
6118;DHT22;3089;48.202;11.510;2023-04-25T10:04:50;12.20;99.90
6118;DHT22;3089;48.202;11.510;2023-04-25T10:07:20;12.30;99.90
6118;DHT22;3089;48.202;11.510;2023-04-25T10:09:58;12.50;99.90
6118;DHT22;3089;48.202;11.510;2023-04-25T10:12:26;13.30;99.90
6118;DHT22;3089;48.202;11.510;2023-04-25T10:14:54;12.90;99.90
6118;DHT22;3089;48.202;11.510;2023-04-25T10:17:22;12.60;99.90
6118;DHT22;3089;48.202;11.510;2023-04-25T10:19:51;12.00;99.90
6118;DHT22;3089;48.202;11.510;2023-04-25T10:22:23;12.10;99.90
6118;DHT22;3089;48.202;11.510;2023-04-25T10:24:55;12.30;99.90
6118;DHT22;3089;48.202;11.510;2023-04-25T10:27:24;12.00;99.90
6118;DHT22;3089;48.202;11.510;2023-04-25T10:30:00;11.80;99.90
6118;DHT22;3089;48.202;11.510;2023-04-25T10:32:30;11.90;99.90
6118;DHT22;3089;48.202;11.510;2023-04-25T10:35:02;11.50;99.90
6118;DHT22;3089;48.202;11.510;2023-04-25T10:37:37;11.30;99.90
6118;DHT22;3089;48.202;11.510;2023-04-25T10:40:10;11.10;99.90
6118;DHT22;3089;48.202;11.510;2023-04-25T10:42:40;11.10;99.90
6118;DHT22;3089;48.202;11.510;2023-04-25T10:45:09;11.10;99.90
6118;DHT22;3089;48.202;11.510;2023-04-25T10:47:43;11.10;99.90
6118;DHT22;3089;48.202;11.510;2023-04-25T10:50:14;11.10;99.90
6118;DHT22;3089;48.202;11.510;2023-04-25T10:52:42;10.90;99.90
6118;DHT22;3089;48.202;11.510;2023-04-25T10:55:13;11.00;99.90
6118;DHT22;3089;48.202;11.510;2023-04-25T10:57:42;11.00;99.90
6118;DHT22;3089;48.202;11.510;2023-04-25T11:00:15;11.00;99.90
6118;DHT22;3089;48.202;11.510;2023-04-25T11:02:45;11.00;99.90
6118;DHT22;3089;48.202;11.510;2023-04-25T11:05:23;11.00;99.90
6118;DHT22;3089;48.202;11.510;2023-04-25T11:07:55;11.00;99.90
6118;DHT22;3089;48.202;11.510;2023-04-25T11:10:34;11.00;99.90
6118;DHT22;3089;48.202;11.510;2023-04-25T11:13:03;11.10;99.90
6118;DHT22;3089;48.202;11.510;2023-04-25T11:15:31;11.20;99.90
6118;DHT22;3089;48.202;11.510;2023-04-25T11:17:59;11.20;99.90
6118;DHT22;3089;48.202;11.510;2023-04-25T11:20:28;11.20;99.90
6118;DHT22;3089;48.202;11.510;2023-04-25T11:22:57;11.30;99.90
6118;DHT22;3089;48.202;11.510;2023-04-25T11:25:26;11.20;99.90
6118;DHT22;3089;48.202;11.510;2023-04-25T11:27:56;11.20;99.90
6118;DHT22;3089;48.202;11.510;2023-04-25T11:30:25;11.20;99.90
6118;DHT22;3089;48.202;11.510;2023-04-25T11:32:53;11.20;99.90
6118;DHT22;3089;48.202;11.510;2023-04-25T11:35:21;10.50;99.90
6118;DHT22;3089;48.202;11.510;2023-04-25T11:37:52;11.20;99.90
6118;DHT22;3089;48.202;11.510;2023-04-25T11:40:20;11.50;99.90
6118;DHT22;3089;48.202;11.510;2023-04-25T11:42:48;11.40;99.90
6118;DHT22;3089;48.202;11.510;2023-04-25T11:45:19;11.50;99.90
6118;DHT22;3089;48.202;11.510;2023-04-25T11:47:47;11.50;99.90
6118;DHT22;3089;48.202;11.510;2023-04-25T11:50:15;11.60;99.90
6118;DHT22;3089;48.202;11.510;2023-04-25T11:52:45;11.50;99.90
6118;DHT22;3089;48.202;11.510;2023-04-25T11:55:15;11.40;99.90
6118;DHT22;3089;48.202;11.510;2023-04-25T11:57:44;11.10;99.90
6118;DHT22;3089;48.202;11.510;2023-04-25T12:00:14;10.90;99.90
6118;DHT22;3089;48.202;11.510;2023-04-25T12:02:47;10.80;99.90
6118;DHT22;3089;48.202;11.510;2023-04-25T12:05:15;10.70;99.90
6118;DHT22;3089;48.202;11.510;2023-04-25T12:07:46;10.60;99.90
6118;DHT22;3089;48.202;11.510;2023-04-25T12:10:16;10.70;99.90
6118;DHT22;3089;48.202;11.510;2023-04-25T12:12:46;10.70;99.90
6118;DHT22;3089;48.202;11.510;2023-04-25T12:15:15;10.70;99.90
6118;DHT22;3089;48.202;11.510;2023-04-25T12:17:47;10.70;99.90
6118;DHT22;3089;48.202;11.510;2023-04-25T12:20:17;10.60;99.90
6118;DHT22;3089;48.202;11.510;2023-04-25T12:22:47;10.60;99.90
6118;DHT22;3089;48.202;11.510;2023-04-25T12:25:36;10.60;99.90
6118;DHT22;3089;48.202;11.510;2023-04-25T12:28:13;10.70;99.90
6118;DHT22;3089;48.202;11.510;2023-04-25T12:30:57;10.70;99.90
6118;DHT22;3089;48.202;11.510;2023-04-25T12:33:28;10.70;99.90
6118;DHT22;3089;48.202;11.510;2023-04-25T12:35:56;10.70;99.90
6118;DHT22;3089;48.202;11.510;2023-04-25T12:38:26;10.70;99.90
6118;DHT22;3089;48.202;11.510;2023-04-25T12:40:54;10.60;99.90
6118;DHT22;3089;48.202;11.510;2023-04-25T12:43:22;10.70;99.90
6118;DHT22;3089;48.202;11.510;2023-04-25T12:45:50;10.60;99.90
6118;DHT22;3089;48.202;11.510;2023-04-25T12:48:18;10.60;99.90
6118;DHT22;3089;48.202;11.510;2023-04-25T12:50:48;10.70;99.90
6118;DHT22;3089;48.202;11.510;2023-04-25T12:53:19;10.50;99.90
6118;DHT22;3089;48.202;11.510;2023-04-25T12:55:47;10.60;99.90
6118;DHT22;3089;48.202;11.510;2023-04-25T12:58:17;10.50;99.90
6118;DHT22;3089;48.202;11.510;2023-04-25T13:00:45;10.30;99.90
6118;DHT22;3089;48.202;11.510;2023-04-25T13:03:14;10.20;99.90
6118;DHT22;3089;48.202;11.510;2023-04-25T13:05:43;10.30;99.90
6118;DHT22;3089;48.202;11.510;2023-04-25T13:08:12;10.30;99.90
6118;DHT22;3089;48.202;11.510;2023-04-25T13:10:40;10.40;99.90
6118;DHT22;3089;48.202;11.510;2023-04-25T13:13:08;10.40;99.90
6118;DHT22;3089;48.202;11.510;2023-04-25T13:15:36;10.20;99.90
6118;DHT22;3089;48.202;11.510;2023-04-25T13:18:04;9.90;99.90
6118;DHT22;3089;48.202;11.510;2023-04-25T13:20:32;10.00;99.90
6118;DHT22;3089;48.202;11.510;2023-04-25T13:23:00;10.10;99.90
6118;DHT22;3089;48.202;11.510;2023-04-25T13:25:30;9.80;99.90
6118;DHT22;3089;48.202;11.510;2023-04-25T13:27:57;10.00;99.90
6118;DHT22;3089;48.202;11.510;2023-04-25T13:30:25;10.20;99.90
6118;DHT22;3089;48.202;11.510;2023-04-25T13:32:53;10.30;99.90
6118;DHT22;3089;48.202;11.510;2023-04-25T13:35:23;10.00;99.90
6118;DHT22;3089;48.202;11.510;2023-04-25T13:37:51;10.00;99.90
6118;DHT22;3089;48.202;11.510;2023-04-25T13:40:18;10.00;99.90
6118;DHT22;3089;48.202;11.510;2023-04-25T13:42:49;10.10;99.90
6118;DHT22;3089;48.202;11.510;2023-04-25T13:45:17;10.20;99.90
6118;DHT22;3089;48.202;11.510;2023-04-25T13:47:45;9.70;99.90
6118;DHT22;3089;48.202;11.510;2023-04-25T13:50:13;9.70;99.90
6118;DHT22;3089;48.202;11.510;2023-04-25T13:52:42;9.70;99.90
6118;DHT22;3089;48.202;11.510;2023-04-25T13:55:10;9.80;99.90
6118;DHT22;3089;48.202;11.510;2023-04-25T13:57:38;9.90;99.90
6118;DHT22;3089;48.202;11.510;2023-04-25T14:00:09;9.90;99.90
6118;DHT22;3089;48.202;11.510;2023-04-25T14:02:38;10.00;99.90
6118;DHT22;3089;48.202;11.510;2023-04-25T14:05:07;9.80;99.90
6118;DHT22;3089;48.202;11.510;2023-04-25T14:07:36;10.00;99.90
6118;DHT22;3089;48.202;11.510;2023-04-25T14:10:05;10.00;99.90
6118;DHT22;3089;48.202;11.510;2023-04-25T14:12:33;10.10;99.90
6118;DHT22;3089;48.202;11.510;2023-04-25T14:15:02;10.10;99.90
6118;DHT22;3089;48.202;11.510;2023-04-25T14:17:31;10.10;99.90
6118;DHT22;3089;48.202;11.510;2023-04-25T14:19:59;10.20;99.90
6118;DHT22;3089;48.202;11.510;2023-04-25T14:22:26;10.10;99.90
6118;DHT22;3089;48.202;11.510;2023-04-25T14:24:54;10.10;99.90
6118;DHT22;3089;48.202;11.510;2023-04-25T14:27:22;10.20;99.90
6118;DHT22;3089;48.202;11.510;2023-04-25T14:29:50;10.20;99.90
6118;DHT22;3089;48.202;11.510;2023-04-25T14:32:18;9.80;99.90
6118;DHT22;3089;48.202;11.510;2023-04-25T14:34:48;9.80;99.90
6118;DHT22;3089;48.202;11.510;2023-04-25T14:37:16;10.00;99.90
6118;DHT22;3089;48.202;11.510;2023-04-25T14:39:44;10.00;99.90
6118;DHT22;3089;48.202;11.510;2023-04-25T14:42:14;10.10;99.90
6118;DHT22;3089;48.202;11.510;2023-04-25T14:44:42;10.20;99.90
6118;DHT22;3089;48.202;11.510;2023-04-25T14:47:09;10.20;99.90
6118;DHT22;3089;48.202;11.510;2023-04-25T14:49:37;10.10;99.90
6118;DHT22;3089;48.202;11.510;2023-04-25T14:52:09;10.20;99.90
6118;DHT22;3089;48.202;11.510;2023-04-25T14:54:37;10.10;99.90
6118;DHT22;3089;48.202;11.510;2023-04-25T14:57:05;10.10;99.90
6118;DHT22;3089;48.202;11.510;2023-04-25T14:59:32;10.10;99.90
6118;DHT22;3089;48.202;11.510;2023-04-25T15:02:00;10.10;99.90
6118;DHT22;3089;48.202;11.510;2023-04-25T15:04:29;10.10;99.90
6118;DHT22;3089;48.202;11.510;2023-04-25T15:06:57;10.10;99.90
6118;DHT22;3089;48.202;11.510;2023-04-25T15:09:27;10.10;99.90
6118;DHT22;3089;48.202;11.510;2023-04-25T15:11:55;10.10;99.90
6118;DHT22;3089;48.202;11.510;2023-04-25T15:14:24;9.90;99.90
6118;DHT22;3089;48.202;11.510;2023-04-25T15:16:52;9.90;99.90
6118;DHT22;3089;48.202;11.510;2023-04-25T15:19:20;10.10;99.90
6118;DHT22;3089;48.202;11.510;2023-04-25T15:21:48;10.10;99.90
6118;DHT22;3089;48.202;11.510;2023-04-25T15:24:16;10.00;99.90
6118;DHT22;3089;48.202;11.510;2023-04-25T15:26:45;10.10;99.90
6118;DHT22;3089;48.202;11.510;2023-04-25T15:29:13;10.10;99.90
6118;DHT22;3089;48.202;11.510;2023-04-25T15:31:42;10.10;99.90
6118;DHT22;3089;48.202;11.510;2023-04-25T15:34:09;10.10;99.90
6118;DHT22;3089;48.202;11.510;2023-04-25T15:36:37;10.10;99.90
6118;DHT22;3089;48.202;11.510;2023-04-25T15:39:05;10.00;99.90
6118;DHT22;3089;48.202;11.510;2023-04-25T15:41:33;9.90;99.90
6118;DHT22;3089;48.202;11.510;2023-04-25T15:44:02;9.60;99.90
6118;DHT22;3089;48.202;11.510;2023-04-25T15:46:30;9.80;99.90
6118;DHT22;3089;48.202;11.510;2023-04-25T15:48:58;9.90;99.90
6118;DHT22;3089;48.202;11.510;2023-04-25T15:51:26;9.80;99.90
6118;DHT22;3089;48.202;11.510;2023-04-25T15:53:54;9.70;99.90
6118;DHT22;3089;48.202;11.510;2023-04-25T15:56:22;9.70;99.90
6118;DHT22;3089;48.202;11.510;2023-04-25T15:58:50;9.80;99.90
6118;DHT22;3089;48.202;11.510;2023-04-25T16:01:22;9.70;99.90
6118;DHT22;3089;48.202;11.510;2023-04-25T16:03:51;9.80;99.90
6118;DHT22;3089;48.202;11.510;2023-04-25T16:06:20;9.80;99.90